Bilbao Knutsen — ECER — position and weather

sailwx.info

Track history (hours):
 
Tides and Currents Weather Stations Pressure Air Temp Water Temp Dewpoint Dewpoint Depression Visibility Wind Speed Wind Dir Waves Ship Positions

Bilbao Knutsen

Last reported at 2017-Oct-21 20:22 UTC. Time now 2017-Nov-24 14:57 UTC.
Position S 31°48' W 072°17'.
Warning: this ship's position is 33 days out of date.

Length 284 m; draft 11.3 m.

Type: Ship (hazmat cat A). MMSI: 224606000.

Date/timePositionNaut miles runAvg speedWind from/ knotsBaromVisibWave heightAir tempDewpointWater temp
2017-Oct-21 20:22S 31°48' W 072°17'6112.5
2017-Oct-21 15:31S 32°39' W 071°39'013.7
2017-Oct-21 15:30S 32°39' W 071°39'713.7
2017-Oct-21 15:00S 32°44' W 071°33'2 0.1
2017-Oct-20 13:47S 32°45' W 071°31'2 4.3
2017-Oct-20 13:21S 32°45' W 071°33'514.4
2017-Oct-20 13:00S 32°45' W 071°39'2 3.5
2017-Oct-20 12:25S 32°45' W 071°42'2 4.7
2017-Oct-20 12:00S 32°45' W 071°44'3 5.6
2017-Oct-20 11:27S 32°45' W 071°40'2 4.7
2017-Oct-20 11:00S 32°47' W 071°41'5 9.0
2017-Oct-20 10:30S 32°45' W 071°45'4 7.4
2017-Oct-20 10:00S 32°46' W 071°50'24 1.0
2017-Oct-19 10:37S 32°49' W 072°18'210.5
2017-Oct-19 10:27S 32°48' W 072°16'4 8.6
2017-Oct-19 09:59S 32°47' W 072°12'  
Track history (hours):
 
Tides and Currents Weather Stations Pressure Air Temp Water Temp Dewpoint Dewpoint Depression Visibility Wind Speed Wind Dir Waves Ship Positions

Bilbao Knutsen

Last reported at 2017-Oct-21 20:22 UTC. Time now 2017-Nov-24 14:57 UTC.
Position S 31°48' W 072°17'.
Warning: this ship's position is 33 days out of date.

Length 284 m; draft 11.3 m.

Type: Ship (hazmat cat A). MMSI: 224606000.

Date/timePositionNaut miles runAvg speedWind from/ knotsBaromVisibWave heightAir tempDewpointWater temp
2017-Oct-21 20:22S 31°48' W 072°17'6112.5
2017-Oct-21 15:31S 32°39' W 071°39'013.7
2017-Oct-21 15:30S 32°39' W 071°39'713.7
2017-Oct-21 15:00S 32°44' W 071°33'2 0.1
2017-Oct-20 13:47S 32°45' W 071°31'2 4.3
2017-Oct-20 13:21S 32°45' W 071°33'514.4
2017-Oct-20 13:00S 32°45' W 071°39'2 3.5
2017-Oct-20 12:25S 32°45' W 071°42'2 4.7
2017-Oct-20 12:00S 32°45' W 071°44'3 5.6
2017-Oct-20 11:27S 32°45' W 071°40'2 4.7
2017-Oct-20 11:00S 32°47' W 071°41'5 9.0
2017-Oct-20 10:30S 32°45' W 071°45'4 7.4
2017-Oct-20 10:00S 32°46' W 071°50'24 1.0
2017-Oct-19 10:37S 32°49' W 072°18'210.5
2017-Oct-19 10:27S 32°48' W 072°16'4 8.6
2017-Oct-19 09:59S 32°47' W 072°12'  

Dump ship's entire track history